sensor_id;sensor_type;location;lat;lon;timestamp;P1;durP1;ratioP1;P2;durP2;ratioP2
38224;SDS011;24025;48.138;11.428;2022-09-13T00:02:06;2.42;;;1.65;;
38224;SDS011;24025;48.138;11.428;2022-09-13T00:04:36;7.00;;;3.65;;
38224;SDS011;24025;48.138;11.428;2022-09-13T00:07:07;4.32;;;1.77;;
38224;SDS011;24025;48.138;11.428;2022-09-13T00:09:37;7.45;;;2.03;;
38224;SDS011;24025;48.138;11.428;2022-09-13T00:12:08;2.45;;;1.70;;
38224;SDS011;24025;48.138;11.428;2022-09-13T00:14:38;5.63;;;1.45;;
38224;SDS011;24025;48.138;11.428;2022-09-13T00:17:09;3.65;;;2.00;;
38224;SDS011;24025;48.138;11.428;2022-09-13T00:19:39;6.82;;;2.53;;
38224;SDS011;24025;48.138;11.428;2022-09-13T00:22:09;3.67;;;1.80;;
38224;SDS011;24025;48.138;11.428;2022-09-13T00:24:40;6.10;;;1.90;;
38224;SDS011;24025;48.138;11.428;2022-09-13T00:27:10;2.83;;;2.10;;
38224;SDS011;24025;48.138;11.428;2022-09-13T00:29:41;2.33;;;1.67;;
38224;SDS011;24025;48.138;11.428;2022-09-13T00:32:12;3.63;;;1.90;;
38224;SDS011;24025;48.138;11.428;2022-09-13T00:34:42;3.85;;;1.67;;
38224;SDS011;24025;48.138;11.428;2022-09-13T00:37:13;3.03;;;1.70;;
38224;SDS011;24025;48.138;11.428;2022-09-13T00:39:43;4.13;;;2.10;;
38224;SDS011;24025;48.138;11.428;2022-09-13T00:42:14;2.97;;;1.58;;
38224;SDS011;24025;48.138;11.428;2022-09-13T00:44:49;2.97;;;1.98;;
38224;SDS011;24025;48.138;11.428;2022-09-13T00:47:40;2.92;;;1.83;;
38224;SDS011;24025;48.138;11.428;2022-09-13T00:53:04;5.10;;;1.75;;
38224;SDS011;24025;48.138;11.428;2022-09-13T00:55:41;2.67;;;1.30;;
38224;SDS011;24025;48.138;11.428;2022-09-13T00:58:17;3.25;;;1.45;;
38224;SDS011;24025;48.138;11.428;2022-09-13T01:00:49;3.78;;;1.55;;
38224;SDS011;24025;48.138;11.428;2022-09-13T01:03:21;5.32;;;1.70;;
38224;SDS011;24025;48.138;11.428;2022-09-13T01:06:01;4.07;;;1.40;;
38224;SDS011;24025;48.138;11.428;2022-09-13T01:08:36;3.45;;;1.50;;
38224;SDS011;24025;48.138;11.428;2022-09-13T01:11:11;2.78;;;1.60;;
38224;SDS011;24025;48.138;11.428;2022-09-13T01:13:48;3.15;;;1.58;;
38224;SDS011;24025;48.138;11.428;2022-09-13T01:16:20;3.22;;;1.50;;
38224;SDS011;24025;48.138;11.428;2022-09-13T01:18:50;2.85;;;1.50;;
38224;SDS011;24025;48.138;11.428;2022-09-13T01:27:14;1.67;;;1.40;;
38224;SDS011;24025;48.138;11.428;2022-09-13T01:47:11;7.78;;;1.65;;
38224;SDS011;24025;48.138;11.428;2022-09-13T01:55:28;3.53;;;1.45;;
38224;SDS011;24025;48.138;11.428;2022-09-13T02:00:43;4.68;;;1.15;;
38224;SDS011;24025;48.138;11.428;2022-09-13T02:03:35;2.55;;;1.10;;
38224;SDS011;24025;48.138;11.428;2022-09-13T02:06:13;1.75;;;0.93;;
38224;SDS011;24025;48.138;11.428;2022-09-13T02:08:54;0.93;;;0.85;;
38224;SDS011;24025;48.138;11.428;2022-09-13T02:11:29;2.15;;;1.13;;
38224;SDS011;24025;48.138;11.428;2022-09-13T02:16:41;3.10;;;1.08;;
38224;SDS011;24025;48.138;11.428;2022-09-13T02:19:25;2.20;;;1.20;;
38224;SDS011;24025;48.138;11.428;2022-09-13T02:22:05;3.58;;;0.98;;
38224;SDS011;24025;48.138;11.428;2022-09-13T02:24:39;2.47;;;1.00;;
38224;SDS011;24025;48.138;11.428;2022-09-13T02:27:12;1.67;;;0.90;;
38224;SDS011;24025;48.138;11.428;2022-09-13T02:29:46;1.00;;;0.70;;
38224;SDS011;24025;48.138;11.428;2022-09-13T02:32:27;2.40;;;1.10;;
38224;SDS011;24025;48.138;11.428;2022-09-13T02:35:07;3.90;;;1.20;;
38224;SDS011;24025;48.138;11.428;2022-09-13T02:37:52;1.08;;;0.93;;
38224;SDS011;24025;48.138;11.428;2022-09-13T02:40:31;1.00;;;0.90;;
38224;SDS011;24025;48.138;11.428;2022-09-13T02:43:10;4.00;;;1.08;;
38224;SDS011;24025;48.138;11.428;2022-09-13T02:45:50;1.08;;;0.85;;
38224;SDS011;24025;48.138;11.428;2022-09-13T02:48:48;1.40;;;1.08;;
38224;SDS011;24025;48.138;11.428;2022-09-13T02:51:44;1.13;;;0.80;;
38224;SDS011;24025;48.138;11.428;2022-09-13T02:54:31;3.15;;;0.90;;
38224;SDS011;24025;48.138;11.428;2022-09-13T02:57:17;1.10;;;0.98;;
38224;SDS011;24025;48.138;11.428;2022-09-13T02:59:55;2.13;;;0.70;;
38224;SDS011;24025;48.138;11.428;2022-09-13T03:02:27;2.50;;;0.82;;
38224;SDS011;24025;48.138;11.428;2022-09-13T03:05:02;1.33;;;0.80;;
38224;SDS011;24025;48.138;11.428;2022-09-13T03:07:32;2.95;;;0.88;;
38224;SDS011;24025;48.138;11.428;2022-09-13T03:10:05;1.10;;;1.00;;
38224;SDS011;24025;48.138;11.428;2022-09-13T03:26:40;4.63;;;1.60;;
38224;SDS011;24025;48.138;11.428;2022-09-13T03:38:07;1.10;;;0.88;;
38224;SDS011;24025;48.138;11.428;2022-09-13T03:40:47;3.50;;;1.05;;
38224;SDS011;24025;48.138;11.428;2022-09-13T03:43:42;1.35;;;0.90;;
38224;SDS011;24025;48.138;11.428;2022-09-13T03:46:30;2.60;;;0.80;;
38224;SDS011;24025;48.138;11.428;2022-09-13T03:49:13;2.70;;;0.90;;
38224;SDS011;24025;48.138;11.428;2022-09-13T03:51:46;1.42;;;0.80;;
38224;SDS011;24025;48.138;11.428;2022-09-13T03:54:19;0.70;;;0.68;;
38224;SDS011;24025;48.138;11.428;2022-09-13T03:59:53;2.72;;;1.35;;
38224;SDS011;24025;48.138;11.428;2022-09-13T04:02:25;3.35;;;1.10;;
38224;SDS011;24025;48.138;11.428;2022-09-13T04:04:56;4.20;;;1.13;;
38224;SDS011;24025;48.138;11.428;2022-09-13T04:07:27;1.73;;;0.98;;
38224;SDS011;24025;48.138;11.428;2022-09-13T04:09:57;1.40;;;0.90;;
38224;SDS011;24025;48.138;11.428;2022-09-13T04:12:28;2.08;;;1.02;;
38224;SDS011;24025;48.138;11.428;2022-09-13T04:15:00;2.75;;;1.08;;
38224;SDS011;24025;48.138;11.428;2022-09-13T04:17:30;5.38;;;1.10;;
38224;SDS011;24025;48.138;11.428;2022-09-13T04:20:01;2.92;;;0.88;;
38224;SDS011;24025;48.138;11.428;2022-09-13T04:22:33;1.13;;;0.95;;
38224;SDS011;24025;48.138;11.428;2022-09-13T04:25:03;3.85;;;1.17;;
38224;SDS011;24025;48.138;11.428;2022-09-13T04:27:34;3.60;;;1.08;;
38224;SDS011;24025;48.138;11.428;2022-09-13T04:30:05;5.15;;;0.85;;
38224;SDS011;24025;48.138;11.428;2022-09-13T04:32:36;1.40;;;0.98;;
38224;SDS011;24025;48.138;11.428;2022-09-13T04:35:06;3.40;;;0.80;;
38224;SDS011;24025;48.138;11.428;2022-09-13T04:37:38;1.13;;;0.82;;
38224;SDS011;24025;48.138;11.428;2022-09-13T04:40:08;1.58;;;0.90;;
38224;SDS011;24025;48.138;11.428;2022-09-13T04:42:40;3.20;;;1.30;;
38224;SDS011;24025;48.138;11.428;2022-09-13T04:45:12;1.00;;;0.80;;
38224;SDS011;24025;48.138;11.428;2022-09-13T04:47:43;2.67;;;1.08;;
38224;SDS011;24025;48.138;11.428;2022-09-13T04:50:13;4.93;;;0.90;;
38224;SDS011;24025;48.138;11.428;2022-09-13T04:52:44;0.90;;;0.70;;
38224;SDS011;24025;48.138;11.428;2022-09-13T04:55:14;2.22;;;1.40;;
38224;SDS011;24025;48.138;11.428;2022-09-13T04:57:44;7.63;;;2.53;;
38224;SDS011;24025;48.138;11.428;2022-09-13T05:00:15;1.02;;;0.90;;
38224;SDS011;24025;48.138;11.428;2022-09-13T05:02:45;2.90;;;1.13;;
38224;SDS011;24025;48.138;11.428;2022-09-13T05:05:16;2.47;;;0.70;;
38224;SDS011;24025;48.138;11.428;2022-09-13T05:07:48;4.03;;;1.20;;
38224;SDS011;24025;48.138;11.428;2022-09-13T05:10:20;0.95;;;0.75;;
38224;SDS011;24025;48.138;11.428;2022-09-13T05:12:51;2.45;;;1.00;;
38224;SDS011;24025;48.138;11.428;2022-09-13T05:15:21;1.45;;;0.98;;
38224;SDS011;24025;48.138;11.428;2022-09-13T05:17:52;4.18;;;1.05;;
38224;SDS011;24025;48.138;11.428;2022-09-13T05:20:22;1.20;;;0.95;;
38224;SDS011;24025;48.138;11.428;2022-09-13T05:22:54;4.15;;;0.95;;
38224;SDS011;24025;48.138;11.428;2022-09-13T05:25:25;3.17;;;0.90;;
38224;SDS011;24025;48.138;11.428;2022-09-13T05:27:55;4.47;;;0.85;;
38224;SDS011;24025;48.138;11.428;2022-09-13T05:30:25;1.63;;;1.10;;
38224;SDS011;24025;48.138;11.428;2022-09-13T05:32:56;1.38;;;0.80;;
38224;SDS011;24025;48.138;11.428;2022-09-13T05:35:27;1.58;;;0.93;;
38224;SDS011;24025;48.138;11.428;2022-09-13T05:37:57;2.15;;;0.88;;
38224;SDS011;24025;48.138;11.428;2022-09-13T05:40:27;1.33;;;1.13;;
38224;SDS011;24025;48.138;11.428;2022-09-13T05:42:58;4.82;;;1.10;;
38224;SDS011;24025;48.138;11.428;2022-09-13T05:45:28;1.63;;;0.85;;
38224;SDS011;24025;48.138;11.428;2022-09-13T05:47:59;1.17;;;1.00;;
38224;SDS011;24025;48.138;11.428;2022-09-13T05:50:29;0.85;;;0.65;;
38224;SDS011;24025;48.138;11.428;2022-09-13T05:53:00;4.25;;;1.60;;
38224;SDS011;24025;48.138;11.428;2022-09-13T05:55:43;2.55;;;1.15;;
38224;SDS011;24025;48.138;11.428;2022-09-13T05:58:14;3.30;;;0.90;;
38224;SDS011;24025;48.138;11.428;2022-09-13T06:00:44;5.38;;;0.93;;
38224;SDS011;24025;48.138;11.428;2022-09-13T06:03:15;6.10;;;0.90;;
38224;SDS011;24025;48.138;11.428;2022-09-13T06:05:45;6.28;;;1.10;;
38224;SDS011;24025;48.138;11.428;2022-09-13T06:08:15;4.55;;;1.50;;
38224;SDS011;24025;48.138;11.428;2022-09-13T06:10:52;12.88;;;1.60;;
38224;SDS011;24025;48.138;11.428;2022-09-13T06:13:24;7.28;;;2.70;;
38224;SDS011;24025;48.138;11.428;2022-09-13T06:15:55;3.10;;;0.95;;
38224;SDS011;24025;48.138;11.428;2022-09-13T06:20:58;7.03;;;1.13;;
38224;SDS011;24025;48.138;11.428;2022-09-13T06:23:39;6.43;;;1.23;;
38224;SDS011;24025;48.138;11.428;2022-09-13T06:26:11;6.60;;;1.10;;
38224;SDS011;24025;48.138;11.428;2022-09-13T06:28:45;1.05;;;0.70;;
38224;SDS011;24025;48.138;11.428;2022-09-13T06:31:18;1.35;;;0.88;;
38224;SDS011;24025;48.138;11.428;2022-09-13T06:33:54;5.53;;;1.00;;
38224;SDS011;24025;48.138;11.428;2022-09-13T06:36:26;1.13;;;0.70;;
38224;SDS011;24025;48.138;11.428;2022-09-13T06:38:57;2.88;;;0.77;;
38224;SDS011;24025;48.138;11.428;2022-09-13T06:44:00;2.20;;;0.40;;
38224;SDS011;24025;48.138;11.428;2022-09-13T06:46:32;5.32;;;0.70;;
38224;SDS011;24025;48.138;11.428;2022-09-13T06:49:04;3.35;;;1.13;;
38224;SDS011;24025;48.138;11.428;2022-09-13T06:51:36;7.78;;;0.65;;
38224;SDS011;24025;48.138;11.428;2022-09-13T06:54:07;6.32;;;0.90;;
38224;SDS011;24025;48.138;11.428;2022-09-13T06:56:37;9.95;;;1.23;;
38224;SDS011;24025;48.138;11.428;2022-09-13T06:59:09;2.55;;;0.80;;
38224;SDS011;24025;48.138;11.428;2022-09-13T07:01:41;0.47;;;0.47;;
38224;SDS011;24025;48.138;11.428;2022-09-13T07:06:45;0.52;;;0.35;;
38224;SDS011;24025;48.138;11.428;2022-09-13T07:09:19;0.45;;;0.40;;
38224;SDS011;24025;48.138;11.428;2022-09-13T07:11:52;1.17;;;0.40;;
38224;SDS011;24025;48.138;11.428;2022-09-13T07:14:24;1.23;;;0.50;;
38224;SDS011;24025;48.138;11.428;2022-09-13T07:16:56;1.08;;;0.85;;
38224;SDS011;24025;48.138;11.428;2022-09-13T07:19:27;0.40;;;0.30;;
38224;SDS011;24025;48.138;11.428;2022-09-13T07:21:58;1.23;;;0.57;;
38224;SDS011;24025;48.138;11.428;2022-09-13T07:24:28;0.40;;;0.40;;
38224;SDS011;24025;48.138;11.428;2022-09-13T07:26:59;0.93;;;0.40;;
38224;SDS011;24025;48.138;11.428;2022-09-13T07:29:29;2.20;;;0.50;;
38224;SDS011;24025;48.138;11.428;2022-09-13T07:32:00;0.63;;;0.40;;
38224;SDS011;24025;48.138;11.428;2022-09-13T07:34:30;0.80;;;0.40;;
38224;SDS011;24025;48.138;11.428;2022-09-13T07:37:01;1.80;;;0.55;;
38224;SDS011;24025;48.138;11.428;2022-09-13T07:39:32;0.77;;;0.47;;
38224;SDS011;24025;48.138;11.428;2022-09-13T07:42:02;2.22;;;0.35;;
38224;SDS011;24025;48.138;11.428;2022-09-13T07:44:32;0.40;;;0.30;;
38224;SDS011;24025;48.138;11.428;2022-09-13T07:47:03;0.88;;;0.50;;
38224;SDS011;24025;48.138;11.428;2022-09-13T07:49:33;2.20;;;0.52;;
38224;SDS011;24025;48.138;11.428;2022-09-13T07:52:04;0.40;;;0.30;;
38224;SDS011;24025;48.138;11.428;2022-09-13T07:54:34;1.60;;;0.38;;
38224;SDS011;24025;48.138;11.428;2022-09-13T07:57:07;8.15;;;0.70;;
38224;SDS011;24025;48.138;11.428;2022-09-13T07:59:37;1.50;;;0.60;;
38224;SDS011;24025;48.138;11.428;2022-09-13T08:02:08;1.35;;;0.47;;
38224;SDS011;24025;48.138;11.428;2022-09-13T08:04:38;1.77;;;0.50;;
38224;SDS011;24025;48.138;11.428;2022-09-13T08:07:08;9.18;;;2.03;;
38224;SDS011;24025;48.138;11.428;2022-09-13T08:09:39;3.20;;;0.40;;
38224;SDS011;24025;48.138;11.428;2022-09-13T08:12:09;0.50;;;0.32;;
38224;SDS011;24025;48.138;11.428;2022-09-13T08:14:39;1.42;;;0.40;;
38224;SDS011;24025;48.138;11.428;2022-09-13T08:17:10;1.05;;;0.50;;
38224;SDS011;24025;48.138;11.428;2022-09-13T08:19:40;1.23;;;0.43;;
38224;SDS011;24025;48.138;11.428;2022-09-13T08:22:11;1.85;;;0.55;;
38224;SDS011;24025;48.138;11.428;2022-09-13T08:24:41;0.30;;;0.20;;
38224;SDS011;24025;48.138;11.428;2022-09-13T08:27:12;0.82;;;0.60;;
38224;SDS011;24025;48.138;11.428;2022-09-13T08:29:42;1.27;;;0.43;;
38224;SDS011;24025;48.138;11.428;2022-09-13T08:32:13;1.75;;;0.60;;
38224;SDS011;24025;48.138;11.428;2022-09-13T08:34:43;3.22;;;0.30;;
38224;SDS011;24025;48.138;11.428;2022-09-13T08:37:13;2.13;;;0.50;;
38224;SDS011;24025;48.138;11.428;2022-09-13T08:39:44;4.13;;;0.68;;
38224;SDS011;24025;48.138;11.428;2022-09-13T08:42:26;0.60;;;0.30;;
38224;SDS011;24025;48.138;11.428;2022-09-13T08:45:08;2.83;;;0.40;;
38224;SDS011;24025;48.138;11.428;2022-09-13T08:47:42;6.00;;;0.63;;
38224;SDS011;24025;48.138;11.428;2022-09-13T08:50:20;4.03;;;0.75;;
38224;SDS011;24025;48.138;11.428;2022-09-13T08:53:22;2.83;;;0.68;;
38224;SDS011;24025;48.138;11.428;2022-09-13T08:56:02;0.98;;;0.35;;
38224;SDS011;24025;48.138;11.428;2022-09-13T08:58:46;3.10;;;0.57;;
38224;SDS011;24025;48.138;11.428;2022-09-13T09:06:40;0.88;;;0.43;;
38224;SDS011;24025;48.138;11.428;2022-09-13T09:09:13;0.50;;;0.40;;
38224;SDS011;24025;48.138;11.428;2022-09-13T09:11:54;0.47;;;0.30;;
38224;SDS011;24025;48.138;11.428;2022-09-13T09:14:37;0.20;;;0.20;;
38224;SDS011;24025;48.138;11.428;2022-09-13T09:17:14;0.50;;;0.32;;
38224;SDS011;24025;48.138;11.428;2022-09-13T09:19:51;8.25;;;0.40;;
38224;SDS011;24025;48.138;11.428;2022-09-13T09:22:31;2.28;;;0.45;;
38224;SDS011;24025;48.138;11.428;2022-09-13T09:25:03;2.17;;;0.43;;
38224;SDS011;24025;48.138;11.428;2022-09-13T09:27:34;1.13;;;0.30;;
38224;SDS011;24025;48.138;11.428;2022-09-13T09:30:04;0.47;;;0.38;;
38224;SDS011;24025;48.138;11.428;2022-09-13T09:32:57;0.98;;;0.45;;
38224;SDS011;24025;48.138;11.428;2022-09-13T09:35:43;1.27;;;0.30;;
38224;SDS011;24025;48.138;11.428;2022-09-13T09:38:39;1.10;;;0.50;;
38224;SDS011;24025;48.138;11.428;2022-09-13T09:41:18;3.47;;;0.43;;
38224;SDS011;24025;48.138;11.428;2022-09-13T09:46:42;0.25;;;0.25;;
38224;SDS011;24025;48.138;11.428;2022-09-13T09:49:31;0.38;;;0.38;;
38224;SDS011;24025;48.138;11.428;2022-09-13T09:52:26;0.85;;;0.50;;
38224;SDS011;24025;48.138;11.428;2022-09-13T09:55:45;3.95;;;0.70;;
38224;SDS011;24025;48.138;11.428;2022-09-13T09:58:01;0.80;;;0.40;;
38224;SDS011;24025;48.138;11.428;2022-09-13T10:00:34;0.40;;;0.22;;
38224;SDS011;24025;48.138;11.428;2022-09-13T10:03:06;1.75;;;0.55;;
38224;SDS011;24025;48.138;11.428;2022-09-13T10:05:47;0.93;;;0.45;;
38224;SDS011;24025;48.138;11.428;2022-09-13T10:08:27;1.65;;;0.35;;
38224;SDS011;24025;48.138;11.428;2022-09-13T10:11:02;0.80;;;0.40;;
38224;SDS011;24025;48.138;11.428;2022-09-13T10:13:33;2.97;;;0.40;;
38224;SDS011;24025;48.138;11.428;2022-09-13T10:16:24;3.92;;;0.60;;
38224;SDS011;24025;48.138;11.428;2022-09-13T10:19:14;2.22;;;0.30;;
38224;SDS011;24025;48.138;11.428;2022-09-13T10:22:26;1.13;;;0.50;;
38224;SDS011;24025;48.138;11.428;2022-09-13T10:24:49;0.73;;;0.30;;
38224;SDS011;24025;48.138;11.428;2022-09-13T10:27:22;0.80;;;0.40;;
38224;SDS011;24025;48.138;11.428;2022-09-13T10:29:56;2.17;;;0.50;;
38224;SDS011;24025;48.138;11.428;2022-09-13T10:32:29;1.13;;;0.35;;
38224;SDS011;24025;48.138;11.428;2022-09-13T10:35:06;0.47;;;0.35;;
38224;SDS011;24025;48.138;11.428;2022-09-13T10:37:45;1.50;;;0.40;;
38224;SDS011;24025;48.138;11.428;2022-09-13T10:40:17;1.75;;;0.50;;
38224;SDS011;24025;48.138;11.428;2022-09-13T10:45:30;2.65;;;0.60;;
38224;SDS011;24025;48.138;11.428;2022-09-13T10:48:08;2.83;;;0.50;;
38224;SDS011;24025;48.138;11.428;2022-09-13T10:51:28;2.00;;;0.52;;
38224;SDS011;24025;48.138;11.428;2022-09-13T10:53:40;5.80;;;0.55;;
38224;SDS011;24025;48.138;11.428;2022-09-13T10:56:21;1.80;;;0.50;;
38224;SDS011;24025;48.138;11.428;2022-09-13T11:13:35;1.33;;;0.40;;
38224;SDS011;24025;48.138;11.428;2022-09-13T11:18:49;1.40;;;0.40;;
38224;SDS011;24025;48.138;11.428;2022-09-13T11:26:57;0.57;;;0.30;;
38224;SDS011;24025;48.138;11.428;2022-09-13T11:35:27;1.27;;;0.30;;
38224;SDS011;24025;48.138;11.428;2022-09-13T11:40:57;2.43;;;0.30;;
38224;SDS011;24025;48.138;11.428;2022-09-13T11:48:54;3.65;;;0.50;;
38224;SDS011;24025;48.138;11.428;2022-09-13T11:51:42;4.47;;;0.60;;
38224;SDS011;24025;48.138;11.428;2022-09-13T11:56:56;2.43;;;0.63;;
38224;SDS011;24025;48.138;11.428;2022-09-13T11:59:36;1.35;;;0.40;;
38224;SDS011;24025;48.138;11.428;2022-09-13T12:05:20;0.38;;;0.30;;
38224;SDS011;24025;48.138;11.428;2022-09-13T12:07:55;2.08;;;0.57;;
38224;SDS011;24025;48.138;11.428;2022-09-13T12:10:50;3.97;;;0.35;;
38224;SDS011;24025;48.138;11.428;2022-09-13T12:13:34;2.05;;;0.40;;
38224;SDS011;24025;48.138;11.428;2022-09-13T12:16:40;3.97;;;0.38;;
38224;SDS011;24025;48.138;11.428;2022-09-13T12:19:28;4.32;;;0.52;;
38224;SDS011;24025;48.138;11.428;2022-09-13T12:22:14;1.73;;;0.60;;
38224;SDS011;24025;48.138;11.428;2022-09-13T12:24:49;3.20;;;0.85;;
38224;SDS011;24025;48.138;11.428;2022-09-13T12:27:29;1.95;;;0.40;;
38224;SDS011;24025;48.138;11.428;2022-09-13T12:30:14;0.55;;;0.40;;
38224;SDS011;24025;48.138;11.428;2022-09-13T12:32:46;0.85;;;0.30;;
38224;SDS011;24025;48.138;11.428;2022-09-13T12:35:31;1.75;;;0.30;;
38224;SDS011;24025;48.138;11.428;2022-09-13T12:38:11;2.28;;;0.32;;
38224;SDS011;24025;48.138;11.428;2022-09-13T12:44:23;2.53;;;0.40;;
38224;SDS011;24025;48.138;11.428;2022-09-13T12:46:44;0.73;;;0.40;;
38224;SDS011;24025;48.138;11.428;2022-09-13T12:49:46;0.55;;;0.20;;
38224;SDS011;24025;48.138;11.428;2022-09-13T12:52:39;2.30;;;0.40;;
38224;SDS011;24025;48.138;11.428;2022-09-13T12:58:15;3.13;;;0.40;;
38224;SDS011;24025;48.138;11.428;2022-09-13T13:03:30;0.90;;;0.38;;
38224;SDS011;24025;48.138;11.428;2022-09-13T13:06:15;1.33;;;0.30;;
38224;SDS011;24025;48.138;11.428;2022-09-13T13:08:55;0.50;;;0.40;;
38224;SDS011;24025;48.138;11.428;2022-09-13T13:11:29;3.78;;;0.30;;
38224;SDS011;24025;48.138;11.428;2022-09-13T13:23:29;2.15;;;0.47;;
38224;SDS011;24025;48.138;11.428;2022-09-13T13:33:55;3.00;;;0.60;;
38224;SDS011;24025;48.138;11.428;2022-09-13T13:39:11;0.77;;;0.40;;
38224;SDS011;24025;48.138;11.428;2022-09-13T13:49:49;1.63;;;0.30;;
38224;SDS011;24025;48.138;11.428;2022-09-13T13:55:04;0.73;;;0.30;;
38224;SDS011;24025;48.138;11.428;2022-09-13T14:00:36;1.13;;;0.43;;
38224;SDS011;24025;48.138;11.428;2022-09-13T14:08:53;0.60;;;0.40;;
38224;SDS011;24025;48.138;11.428;2022-09-13T14:11:51;0.73;;;0.50;;
38224;SDS011;24025;48.138;11.428;2022-09-13T14:20:16;0.55;;;0.40;;
38224;SDS011;24025;48.138;11.428;2022-09-13T14:22:49;0.98;;;0.32;;
38224;SDS011;24025;48.138;11.428;2022-09-13T14:25:23;3.13;;;0.30;;
38224;SDS011;24025;48.138;11.428;2022-09-13T14:27:55;0.52;;;0.50;;
38224;SDS011;24025;48.138;11.428;2022-09-13T14:30:31;1.63;;;0.40;;
38224;SDS011;24025;48.138;11.428;2022-09-13T14:33:05;0.45;;;0.40;;
38224;SDS011;24025;48.138;11.428;2022-09-13T14:35:38;3.70;;;0.50;;
38224;SDS011;24025;48.138;11.428;2022-09-13T14:38:10;1.75;;;0.60;;
38224;SDS011;24025;48.138;11.428;2022-09-13T14:40:57;5.70;;;0.45;;
38224;SDS011;24025;48.138;11.428;2022-09-13T14:43:29;0.82;;;0.52;;
38224;SDS011;24025;48.138;11.428;2022-09-13T14:46:08;3.60;;;0.47;;
38224;SDS011;24025;48.138;11.428;2022-09-13T14:48:56;2.15;;;0.30;;
38224;SDS011;24025;48.138;11.428;2022-09-13T14:59:42;1.25;;;0.40;;
38224;SDS011;24025;48.138;11.428;2022-09-13T15:02:18;0.52;;;0.32;;
38224;SDS011;24025;48.138;11.428;2022-09-13T15:04:52;1.13;;;0.30;;
38224;SDS011;24025;48.138;11.428;2022-09-13T15:07:31;4.72;;;1.33;;
38224;SDS011;24025;48.138;11.428;2022-09-13T15:15:42;0.73;;;0.52;;
38224;SDS011;24025;48.138;11.428;2022-09-13T15:21:00;3.23;;;0.50;;
38224;SDS011;24025;48.138;11.428;2022-09-13T15:23:36;2.83;;;0.63;;
38224;SDS011;24025;48.138;11.428;2022-09-13T15:26:12;3.35;;;0.47;;
38224;SDS011;24025;48.138;11.428;2022-09-13T15:28:53;3.78;;;0.60;;
38224;SDS011;24025;48.138;11.428;2022-09-13T15:31:30;2.50;;;1.25;;
38224;SDS011;24025;48.138;11.428;2022-09-13T15:36:43;4.07;;;1.00;;
38224;SDS011;24025;48.138;11.428;2022-09-13T15:39:16;1.40;;;0.73;;
38224;SDS011;24025;48.138;11.428;2022-09-13T15:44:24;5.90;;;0.60;;
38224;SDS011;24025;48.138;11.428;2022-09-13T15:46:59;5.22;;;0.60;;
38224;SDS011;24025;48.138;11.428;2022-09-13T15:49:33;1.90;;;0.90;;
38224;SDS011;24025;48.138;11.428;2022-09-13T15:52:04;0.40;;;0.40;;
38224;SDS011;24025;48.138;11.428;2022-09-13T15:54:36;2.40;;;0.30;;
38224;SDS011;24025;48.138;11.428;2022-09-13T15:57:14;1.17;;;0.32;;
38224;SDS011;24025;48.138;11.428;2022-09-13T15:59:48;0.95;;;0.40;;
38224;SDS011;24025;48.138;11.428;2022-09-13T16:02:19;0.87;;;0.40;;
38224;SDS011;24025;48.138;11.428;2022-09-13T16:04:50;2.33;;;0.55;;
38224;SDS011;24025;48.138;11.428;2022-09-13T16:07:21;0.50;;;0.40;;
38224;SDS011;24025;48.138;11.428;2022-09-13T16:09:53;4.90;;;0.43;;
38224;SDS011;24025;48.138;11.428;2022-09-13T16:12:23;3.00;;;1.17;;
38224;SDS011;24025;48.138;11.428;2022-09-13T16:14:55;2.10;;;0.30;;
38224;SDS011;24025;48.138;11.428;2022-09-13T16:17:26;0.90;;;0.43;;
38224;SDS011;24025;48.138;11.428;2022-09-13T16:19:57;1.07;;;0.40;;
38224;SDS011;24025;48.138;11.428;2022-09-13T16:22:28;2.40;;;0.50;;
38224;SDS011;24025;48.138;11.428;2022-09-13T16:24:58;2.87;;;1.13;;
38224;SDS011;24025;48.138;11.428;2022-09-13T16:27:28;3.67;;;1.03;;
38224;SDS011;24025;48.138;11.428;2022-09-13T16:29:59;1.23;;;0.70;;
38224;SDS011;24025;48.138;11.428;2022-09-13T16:32:29;4.13;;;0.70;;
38224;SDS011;24025;48.138;11.428;2022-09-13T16:35:00;4.17;;;0.67;;
38224;SDS011;24025;48.138;11.428;2022-09-13T16:37:30;6.20;;;0.80;;
38224;SDS011;24025;48.138;11.428;2022-09-13T16:40:00;2.07;;;0.67;;
38224;SDS011;24025;48.138;11.428;2022-09-13T16:42:31;1.80;;;0.50;;
38224;SDS011;24025;48.138;11.428;2022-09-13T16:45:02;0.93;;;0.60;;
38224;SDS011;24025;48.138;11.428;2022-09-13T16:47:34;5.13;;;1.88;;
38224;SDS011;24025;48.138;11.428;2022-09-13T16:50:05;5.87;;;1.90;;
38224;SDS011;24025;48.138;11.428;2022-09-13T16:52:36;4.25;;;2.03;;
38224;SDS011;24025;48.138;11.428;2022-09-13T16:55:06;2.00;;;1.10;;
38224;SDS011;24025;48.138;11.428;2022-09-13T16:57:37;1.43;;;1.00;;
38224;SDS011;24025;48.138;11.428;2022-09-13T17:00:08;1.20;;;0.57;;
38224;SDS011;24025;48.138;11.428;2022-09-13T17:02:40;2.88;;;2.10;;
38224;SDS011;24025;48.138;11.428;2022-09-13T17:05:12;4.37;;;2.77;;
38224;SDS011;24025;48.138;11.428;2022-09-13T17:07:42;7.40;;;3.45;;
38224;SDS011;24025;48.138;11.428;2022-09-13T17:10:13;3.37;;;1.40;;
38224;SDS011;24025;48.138;11.428;2022-09-13T17:12:43;2.43;;;1.27;;
38224;SDS011;24025;48.138;11.428;2022-09-13T17:15:14;2.23;;;0.70;;
38224;SDS011;24025;48.138;11.428;2022-09-13T17:17:44;3.07;;;0.87;;
38224;SDS011;24025;48.138;11.428;2022-09-13T17:20:15;4.63;;;0.70;;
38224;SDS011;24025;48.138;11.428;2022-09-13T17:22:46;2.00;;;0.87;;
38224;SDS011;24025;48.138;11.428;2022-09-13T17:25:16;1.87;;;0.80;;
38224;SDS011;24025;48.138;11.428;2022-09-13T17:27:49;6.13;;;1.10;;
38224;SDS011;24025;48.138;11.428;2022-09-13T17:30:20;3.87;;;1.00;;
38224;SDS011;24025;48.138;11.428;2022-09-13T17:32:50;8.17;;;1.30;;
38224;SDS011;24025;48.138;11.428;2022-09-13T17:35:21;2.93;;;1.10;;
38224;SDS011;24025;48.138;11.428;2022-09-13T17:37:51;4.50;;;1.00;;
38224;SDS011;24025;48.138;11.428;2022-09-13T17:40:22;3.10;;;1.00;;
38224;SDS011;24025;48.138;11.428;2022-09-13T17:42:52;1.38;;;0.70;;
38224;SDS011;24025;48.138;11.428;2022-09-13T17:45:23;2.47;;;1.03;;
38224;SDS011;24025;48.138;11.428;2022-09-13T17:47:55;4.03;;;0.70;;
38224;SDS011;24025;48.138;11.428;2022-09-13T17:50:28;1.67;;;0.80;;
38224;SDS011;24025;48.138;11.428;2022-09-13T17:52:58;2.92;;;0.90;;
38224;SDS011;24025;48.138;11.428;2022-09-13T17:55:29;4.85;;;0.95;;
38224;SDS011;24025;48.138;11.428;2022-09-13T17:57:59;1.98;;;0.88;;
38224;SDS011;24025;48.138;11.428;2022-09-13T18:00:29;3.13;;;0.88;;
38224;SDS011;24025;48.138;11.428;2022-09-13T18:03:01;9.05;;;4.30;;
38224;SDS011;24025;48.138;11.428;2022-09-13T18:05:31;4.10;;;2.22;;
38224;SDS011;24025;48.138;11.428;2022-09-13T18:08:01;2.45;;;1.10;;
38224;SDS011;24025;48.138;11.428;2022-09-13T18:10:32;2.35;;;1.20;;
38224;SDS011;24025;48.138;11.428;2022-09-13T18:13:03;3.30;;;1.05;;
38224;SDS011;24025;48.138;11.428;2022-09-13T18:15:33;5.63;;;1.20;;
38224;SDS011;24025;48.138;11.428;2022-09-13T18:18:04;4.03;;;1.45;;
38224;SDS011;24025;48.138;11.428;2022-09-13T18:20:34;1.77;;;1.10;;
38224;SDS011;24025;48.138;11.428;2022-09-13T18:23:04;1.92;;;1.05;;
38224;SDS011;24025;48.138;11.428;2022-09-13T18:25:35;2.00;;;1.10;;
38224;SDS011;24025;48.138;11.428;2022-09-13T18:28:05;2.50;;;1.25;;
38224;SDS011;24025;48.138;11.428;2022-09-13T18:30:35;1.33;;;0.90;;
38224;SDS011;24025;48.138;11.428;2022-09-13T18:33:06;2.43;;;1.23;;
38224;SDS011;24025;48.138;11.428;2022-09-13T18:35:37;1.73;;;1.02;;
38224;SDS011;24025;48.138;11.428;2022-09-13T18:38:07;4.70;;;1.40;;